sensor_id;sensor_type;location;lat;lon;timestamp;temperature;humidity
3792;DHT22;1911;53.768;11.474;2024-01-27T00:02:20;4.90;99.90
3792;DHT22;1911;53.768;11.474;2024-01-27T00:04:45;4.90;99.90
3792;DHT22;1911;53.768;11.474;2024-01-27T00:07:11;4.90;99.90
3792;DHT22;1911;53.768;11.474;2024-01-27T00:09:37;4.80;99.90
3792;DHT22;1911;53.768;11.474;2024-01-27T00:12:02;4.80;99.90
3792;DHT22;1911;53.768;11.474;2024-01-27T00:14:28;4.80;99.90
3792;DHT22;1911;53.768;11.474;2024-01-27T00:16:54;4.90;99.90
3792;DHT22;1911;53.768;11.474;2024-01-27T00:19:19;4.90;99.90
3792;DHT22;1911;53.768;11.474;2024-01-27T00:21:45;4.90;99.90
3792;DHT22;1911;53.768;11.474;2024-01-27T00:24:10;4.80;99.90
3792;DHT22;1911;53.768;11.474;2024-01-27T00:26:37;4.80;99.90
3792;DHT22;1911;53.768;11.474;2024-01-27T00:29:02;4.80;99.90
3792;DHT22;1911;53.768;11.474;2024-01-27T00:31:28;4.80;99.90
3792;DHT22;1911;53.768;11.474;2024-01-27T00:33:53;4.80;99.90
3792;DHT22;1911;53.768;11.474;2024-01-27T00:36:19;4.80;99.90
3792;DHT22;1911;53.768;11.474;2024-01-27T00:38:45;4.90;99.90
3792;DHT22;1911;53.768;11.474;2024-01-27T00:41:16;4.80;99.90
3792;DHT22;1911;53.768;11.474;2024-01-27T00:43:42;4.70;99.90
3792;DHT22;1911;53.768;11.474;2024-01-27T00:46:08;4.70;99.90
3792;DHT22;1911;53.768;11.474;2024-01-27T00:48:33;4.70;99.90
3792;DHT22;1911;53.768;11.474;2024-01-27T00:50:59;4.70;99.90
3792;DHT22;1911;53.768;11.474;2024-01-27T00:53:25;4.70;99.90
3792;DHT22;1911;53.768;11.474;2024-01-27T00:55:50;4.70;99.90
3792;DHT22;1911;53.768;11.474;2024-01-27T00:58:16;4.70;99.90
3792;DHT22;1911;53.768;11.474;2024-01-27T01:00:42;4.70;99.90
3792;DHT22;1911;53.768;11.474;2024-01-27T01:03:07;4.70;99.90
3792;DHT22;1911;53.768;11.474;2024-01-27T01:05:33;4.70;99.90
3792;DHT22;1911;53.768;11.474;2024-01-27T01:07:58;4.70;99.90
3792;DHT22;1911;53.768;11.474;2024-01-27T01:10:25;4.70;99.90
3792;DHT22;1911;53.768;11.474;2024-01-27T01:12:51;4.70;99.90
3792;DHT22;1911;53.768;11.474;2024-01-27T01:15:17;4.60;99.90
3792;DHT22;1911;53.768;11.474;2024-01-27T01:17:43;4.70;99.90
3792;DHT22;1911;53.768;11.474;2024-01-27T01:20:08;4.70;99.90
3792;DHT22;1911;53.768;11.474;2024-01-27T01:22:34;4.70;99.90
3792;DHT22;1911;53.768;11.474;2024-01-27T01:25:00;4.70;99.90
3792;DHT22;1911;53.768;11.474;2024-01-27T01:27:25;4.70;99.90
3792;DHT22;1911;53.768;11.474;2024-01-27T01:29:51;4.70;99.90
3792;DHT22;1911;53.768;11.474;2024-01-27T01:32:17;4.70;99.90
3792;DHT22;1911;53.768;11.474;2024-01-27T01:34:42;4.60;99.90
3792;DHT22;1911;53.768;11.474;2024-01-27T01:37:08;4.70;99.90
3792;DHT22;1911;53.768;11.474;2024-01-27T01:39:33;4.70;99.90
3792;DHT22;1911;53.768;11.474;2024-01-27T01:41:59;4.60;99.90
3792;DHT22;1911;53.768;11.474;2024-01-27T01:44:29;4.70;99.90
3792;DHT22;1911;53.768;11.474;2024-01-27T01:46:55;4.60;99.90
3792;DHT22;1911;53.768;11.474;2024-01-27T01:49:21;4.60;99.90
3792;DHT22;1911;53.768;11.474;2024-01-27T01:51:48;4.60;99.90
3792;DHT22;1911;53.768;11.474;2024-01-27T01:54:13;4.60;99.90
3792;DHT22;1911;53.768;11.474;2024-01-27T01:56:39;4.60;99.90
3792;DHT22;1911;53.768;11.474;2024-01-27T01:59:12;4.50;99.90
3792;DHT22;1911;53.768;11.474;2024-01-27T02:06:50;4.60;99.90
3792;DHT22;1911;53.768;11.474;2024-01-27T02:09:16;4.60;99.90
3792;DHT22;1911;53.768;11.474;2024-01-27T02:11:41;4.80;99.90
3792;DHT22;1911;53.768;11.474;2024-01-27T02:14:07;4.60;99.90
3792;DHT22;1911;53.768;11.474;2024-01-27T02:16:33;4.60;99.90
3792;DHT22;1911;53.768;11.474;2024-01-27T02:18:58;4.70;99.90
3792;DHT22;1911;53.768;11.474;2024-01-27T02:21:24;4.60;99.90
3792;DHT22;1911;53.768;11.474;2024-01-27T02:23:49;4.60;99.90
3792;DHT22;1911;53.768;11.474;2024-01-27T02:26:15;4.60;99.90
3792;DHT22;1911;53.768;11.474;2024-01-27T02:28:40;4.70;99.90
3792;DHT22;1911;53.768;11.474;2024-01-27T02:31:06;4.70;99.90
3792;DHT22;1911;53.768;11.474;2024-01-27T02:33:32;4.70;99.90
3792;DHT22;1911;53.768;11.474;2024-01-27T02:35:57;4.70;99.90
3792;DHT22;1911;53.768;11.474;2024-01-27T02:38:23;4.60;99.90
3792;DHT22;1911;53.768;11.474;2024-01-27T02:40:48;4.60;99.90
3792;DHT22;1911;53.768;11.474;2024-01-27T02:43:14;4.70;99.90
3792;DHT22;1911;53.768;11.474;2024-01-27T02:45:39;4.70;99.90
3792;DHT22;1911;53.768;11.474;2024-01-27T02:48:05;4.80;99.90
3792;DHT22;1911;53.768;11.474;2024-01-27T02:50:31;4.70;99.90
3792;DHT22;1911;53.768;11.474;2024-01-27T02:52:56;4.80;99.90
3792;DHT22;1911;53.768;11.474;2024-01-27T02:55:22;4.80;99.90
3792;DHT22;1911;53.768;11.474;2024-01-27T02:57:47;4.80;99.90
3792;DHT22;1911;53.768;11.474;2024-01-27T03:00:13;4.80;99.90
3792;DHT22;1911;53.768;11.474;2024-01-27T03:02:39;4.80;99.90
3792;DHT22;1911;53.768;11.474;2024-01-27T03:05:05;4.90;99.90
3792;DHT22;1911;53.768;11.474;2024-01-27T03:07:30;4.90;99.90
3792;DHT22;1911;53.768;11.474;2024-01-27T03:09:56;4.90;99.90
3792;DHT22;1911;53.768;11.474;2024-01-27T03:12:22;4.90;99.90
3792;DHT22;1911;53.768;11.474;2024-01-27T03:14:48;4.80;99.90
3792;DHT22;1911;53.768;11.474;2024-01-27T03:17:15;4.80;99.90
3792;DHT22;1911;53.768;11.474;2024-01-27T03:19:41;4.90;99.90
3792;DHT22;1911;53.768;11.474;2024-01-27T03:22:06;4.90;99.90
3792;DHT22;1911;53.768;11.474;2024-01-27T03:24:32;4.90;99.90
3792;DHT22;1911;53.768;11.474;2024-01-27T03:26:57;4.90;99.90
3792;DHT22;1911;53.768;11.474;2024-01-27T03:29:23;4.90;99.90
3792;DHT22;1911;53.768;11.474;2024-01-27T03:31:49;4.90;99.90
3792;DHT22;1911;53.768;11.474;2024-01-27T03:34:14;5.00;99.90
3792;DHT22;1911;53.768;11.474;2024-01-27T03:36:40;5.00;99.90
3792;DHT22;1911;53.768;11.474;2024-01-27T03:39:06;5.00;99.90
3792;DHT22;1911;53.768;11.474;2024-01-27T03:41:32;4.90;99.90
3792;DHT22;1911;53.768;11.474;2024-01-27T03:43:58;4.90;99.90
3792;DHT22;1911;53.768;11.474;2024-01-27T03:46:23;4.90;99.90
3792;DHT22;1911;53.768;11.474;2024-01-27T03:48:49;4.90;99.90
3792;DHT22;1911;53.768;11.474;2024-01-27T03:51:15;5.00;99.90
3792;DHT22;1911;53.768;11.474;2024-01-27T03:53:40;4.90;99.90
3792;DHT22;1911;53.768;11.474;2024-01-27T03:56:06;4.90;99.90
3792;DHT22;1911;53.768;11.474;2024-01-27T03:58:32;4.90;99.90
3792;DHT22;1911;53.768;11.474;2024-01-27T04:00:57;4.90;99.90
3792;DHT22;1911;53.768;11.474;2024-01-27T04:03:23;5.00;99.90
3792;DHT22;1911;53.768;11.474;2024-01-27T04:05:49;5.00;99.90
3792;DHT22;1911;53.768;11.474;2024-01-27T04:08:14;5.00;99.90
3792;DHT22;1911;53.768;11.474;2024-01-27T04:10:40;5.10;99.90
3792;DHT22;1911;53.768;11.474;2024-01-27T04:13:06;5.10;99.90
3792;DHT22;1911;53.768;11.474;2024-01-27T04:15:34;5.10;99.90
3792;DHT22;1911;53.768;11.474;2024-01-27T04:18:04;5.10;99.90
3792;DHT22;1911;53.768;11.474;2024-01-27T04:20:31;5.20;99.90
3792;DHT22;1911;53.768;11.474;2024-01-27T04:22:57;5.10;99.90
3792;DHT22;1911;53.768;11.474;2024-01-27T04:25:22;5.10;99.90
3792;DHT22;1911;53.768;11.474;2024-01-27T04:27:49;5.20;99.90
3792;DHT22;1911;53.768;11.474;2024-01-27T04:30:14;5.20;99.90
3792;DHT22;1911;53.768;11.474;2024-01-27T04:32:40;5.20;99.90
3792;DHT22;1911;53.768;11.474;2024-01-27T04:35:09;5.20;99.90
3792;DHT22;1911;53.768;11.474;2024-01-27T04:37:34;5.20;99.90
3792;DHT22;1911;53.768;11.474;2024-01-27T04:40:00;5.20;99.90
3792;DHT22;1911;53.768;11.474;2024-01-27T04:42:26;5.20;99.90
3792;DHT22;1911;53.768;11.474;2024-01-27T04:44:51;5.20;99.90
3792;DHT22;1911;53.768;11.474;2024-01-27T04:47:17;5.20;99.90
3792;DHT22;1911;53.768;11.474;2024-01-27T04:49:43;5.20;99.90
3792;DHT22;1911;53.768;11.474;2024-01-27T04:52:08;5.20;99.90
3792;DHT22;1911;53.768;11.474;2024-01-27T04:54:34;5.20;99.90
3792;DHT22;1911;53.768;11.474;2024-01-27T04:56:59;5.20;99.90
3792;DHT22;1911;53.768;11.474;2024-01-27T04:59:25;5.30;99.90
3792;DHT22;1911;53.768;11.474;2024-01-27T05:01:50;5.30;99.90
3792;DHT22;1911;53.768;11.474;2024-01-27T05:04:16;5.20;99.90
3792;DHT22;1911;53.768;11.474;2024-01-27T05:06:45;5.30;99.90
3792;DHT22;1911;53.768;11.474;2024-01-27T05:09:11;5.30;99.90
3792;DHT22;1911;53.768;11.474;2024-01-27T05:11:37;5.30;99.90
3792;DHT22;1911;53.768;11.474;2024-01-27T05:14:03;5.30;99.90
3792;DHT22;1911;53.768;11.474;2024-01-27T05:16:28;5.30;99.90
3792;DHT22;1911;53.768;11.474;2024-01-27T05:18:54;5.30;99.90
3792;DHT22;1911;53.768;11.474;2024-01-27T05:21:20;5.30;99.90
3792;DHT22;1911;53.768;11.474;2024-01-27T05:23:45;5.30;99.90
3792;DHT22;1911;53.768;11.474;2024-01-27T05:26:11;5.30;99.90
3792;DHT22;1911;53.768;11.474;2024-01-27T05:28:37;5.30;99.90
3792;DHT22;1911;53.768;11.474;2024-01-27T05:31:06;5.40;99.90
3792;DHT22;1911;53.768;11.474;2024-01-27T05:33:32;5.40;99.90
3792;DHT22;1911;53.768;11.474;2024-01-27T05:35:57;5.40;99.90
3792;DHT22;1911;53.768;11.474;2024-01-27T05:38:23;5.40;99.90
3792;DHT22;1911;53.768;11.474;2024-01-27T05:40:49;5.50;99.90
3792;DHT22;1911;53.768;11.474;2024-01-27T05:43:16;5.40;99.90
3792;DHT22;1911;53.768;11.474;2024-01-27T05:45:41;5.40;99.90
3792;DHT22;1911;53.768;11.474;2024-01-27T05:48:07;5.40;99.90
3792;DHT22;1911;53.768;11.474;2024-01-27T05:50:33;5.50;99.90
3792;DHT22;1911;53.768;11.474;2024-01-27T05:52:59;5.40;99.90
3792;DHT22;1911;53.768;11.474;2024-01-27T05:55:25;5.40;99.90
3792;DHT22;1911;53.768;11.474;2024-01-27T05:57:50;5.30;99.90
3792;DHT22;1911;53.768;11.474;2024-01-27T06:00:16;5.40;99.90
3792;DHT22;1911;53.768;11.474;2024-01-27T06:02:42;5.40;99.90
3792;DHT22;1911;53.768;11.474;2024-01-27T06:05:07;5.30;99.90
3792;DHT22;1911;53.768;11.474;2024-01-27T06:07:37;5.30;99.90
3792;DHT22;1911;53.768;11.474;2024-01-27T06:10:02;5.30;99.90
3792;DHT22;1911;53.768;11.474;2024-01-27T06:12:29;5.30;99.90
3792;DHT22;1911;53.768;11.474;2024-01-27T06:14:54;5.30;99.90
3792;DHT22;1911;53.768;11.474;2024-01-27T06:17:20;5.30;99.90
3792;DHT22;1911;53.768;11.474;2024-01-27T06:19:45;5.30;99.90
3792;DHT22;1911;53.768;11.474;2024-01-27T06:22:11;5.30;99.90
3792;DHT22;1911;53.768;11.474;2024-01-27T06:24:42;5.30;99.90
3792;DHT22;1911;53.768;11.474;2024-01-27T06:27:09;5.30;99.90
3792;DHT22;1911;53.768;11.474;2024-01-27T06:29:34;5.30;99.90
3792;DHT22;1911;53.768;11.474;2024-01-27T06:32:00;5.30;99.90
3792;DHT22;1911;53.768;11.474;2024-01-27T06:34:25;5.30;99.90
3792;DHT22;1911;53.768;11.474;2024-01-27T06:36:51;5.30;99.90
3792;DHT22;1911;53.768;11.474;2024-01-27T06:39:16;5.30;99.90
3792;DHT22;1911;53.768;11.474;2024-01-27T06:41:42;5.30;99.90
3792;DHT22;1911;53.768;11.474;2024-01-27T06:44:08;5.30;99.90
3792;DHT22;1911;53.768;11.474;2024-01-27T06:46:33;5.30;99.90
3792;DHT22;1911;53.768;11.474;2024-01-27T06:48:59;5.30;99.90
3792;DHT22;1911;53.768;11.474;2024-01-27T06:51:24;5.30;99.90
3792;DHT22;1911;53.768;11.474;2024-01-27T06:53:50;5.30;99.90
3792;DHT22;1911;53.768;11.474;2024-01-27T06:56:16;5.30;99.90
3792;DHT22;1911;53.768;11.474;2024-01-27T06:58:41;5.30;99.90
3792;DHT22;1911;53.768;11.474;2024-01-27T07:01:07;5.30;99.90
3792;DHT22;1911;53.768;11.474;2024-01-27T07:03:33;5.40;99.90
3792;DHT22;1911;53.768;11.474;2024-01-27T07:05:59;5.40;99.90
3792;DHT22;1911;53.768;11.474;2024-01-27T07:08:27;5.40;99.90
3792;DHT22;1911;53.768;11.474;2024-01-27T07:10:53;5.40;99.90
3792;DHT22;1911;53.768;11.474;2024-01-27T07:13:18;5.40;99.90
3792;DHT22;1911;53.768;11.474;2024-01-27T07:15:44;5.40;99.90
3792;DHT22;1911;53.768;11.474;2024-01-27T07:18:10;5.40;99.90
3792;DHT22;1911;53.768;11.474;2024-01-27T07:20:36;5.30;99.90
3792;DHT22;1911;53.768;11.474;2024-01-27T07:23:20;5.40;99.90
3792;DHT22;1911;53.768;11.474;2024-01-27T07:25:46;5.30;99.90
3792;DHT22;1911;53.768;11.474;2024-01-27T07:28:23;5.40;99.90
3792;DHT22;1911;53.768;11.474;2024-01-27T07:30:56;5.00;99.90
3792;DHT22;1911;53.768;11.474;2024-01-27T07:33:24;5.90;99.90
3792;DHT22;1911;53.768;11.474;2024-01-27T07:35:50;5.40;99.90
3792;DHT22;1911;53.768;11.474;2024-01-27T07:38:15;5.30;99.90
3792;DHT22;1911;53.768;11.474;2024-01-27T07:40:41;5.40;99.90
3792;DHT22;1911;53.768;11.474;2024-01-27T07:43:06;5.30;99.90
3792;DHT22;1911;53.768;11.474;2024-01-27T07:45:32;5.40;99.90
3792;DHT22;1911;53.768;11.474;2024-01-27T07:47:58;5.40;99.90
3792;DHT22;1911;53.768;11.474;2024-01-27T08:01:15;5.50;99.90
3792;DHT22;1911;53.768;11.474;2024-01-27T08:03:41;5.40;99.90
3792;DHT22;1911;53.768;11.474;2024-01-27T08:06:10;5.40;99.90
3792;DHT22;1911;53.768;11.474;2024-01-27T08:08:36;5.50;99.90
3792;DHT22;1911;53.768;11.474;2024-01-27T08:11:02;5.50;99.90
3792;DHT22;1911;53.768;11.474;2024-01-27T08:13:28;5.50;99.90
3792;DHT22;1911;53.768;11.474;2024-01-27T08:15:54;5.50;99.90
3792;DHT22;1911;53.768;11.474;2024-01-27T08:18:19;5.50;99.90
3792;DHT22;1911;53.768;11.474;2024-01-27T08:20:45;5.60;99.90
3792;DHT22;1911;53.768;11.474;2024-01-27T08:23:11;5.60;99.90
3792;DHT22;1911;53.768;11.474;2024-01-27T08:25:36;5.60;99.90
3792;DHT22;1911;53.768;11.474;2024-01-27T08:28:03;5.60;99.90
3792;DHT22;1911;53.768;11.474;2024-01-27T08:30:29;5.60;99.90
3792;DHT22;1911;53.768;11.474;2024-01-27T08:32:55;5.70;99.90
3792;DHT22;1911;53.768;11.474;2024-01-27T08:35:21;5.70;99.90
3792;DHT22;1911;53.768;11.474;2024-01-27T08:37:46;5.60;99.90
3792;DHT22;1911;53.768;11.474;2024-01-27T08:40:12;5.70;99.90
3792;DHT22;1911;53.768;11.474;2024-01-27T08:42:39;5.60;99.90
3792;DHT22;1911;53.768;11.474;2024-01-27T08:45:05;5.70;99.90
3792;DHT22;1911;53.768;11.474;2024-01-27T08:47:31;5.70;99.90
3792;DHT22;1911;53.768;11.474;2024-01-27T08:49:57;5.70;99.90
3792;DHT22;1911;53.768;11.474;2024-01-27T08:52:23;5.70;99.90
3792;DHT22;1911;53.768;11.474;2024-01-27T08:54:48;5.80;99.90
3792;DHT22;1911;53.768;11.474;2024-01-27T08:57:14;5.90;99.90
3792;DHT22;1911;53.768;11.474;2024-01-27T08:59:40;5.90;99.90
3792;DHT22;1911;53.768;11.474;2024-01-27T09:02:05;5.90;99.90
3792;DHT22;1911;53.768;11.474;2024-01-27T09:04:31;5.90;99.90
3792;DHT22;1911;53.768;11.474;2024-01-27T09:06:56;5.90;99.90
3792;DHT22;1911;53.768;11.474;2024-01-27T09:09:22;5.90;99.90
3792;DHT22;1911;53.768;11.474;2024-01-27T09:11:49;5.90;99.90
3792;DHT22;1911;53.768;11.474;2024-01-27T09:14:15;5.80;99.90
3792;DHT22;1911;53.768;11.474;2024-01-27T09:16:41;5.80;99.90
3792;DHT22;1911;53.768;11.474;2024-01-27T09:19:07;5.90;99.90
3792;DHT22;1911;53.768;11.474;2024-01-27T09:21:33;5.80;99.90
3792;DHT22;1911;53.768;11.474;2024-01-27T09:23:59;5.80;99.90
3792;DHT22;1911;53.768;11.474;2024-01-27T09:26:27;5.70;99.90
3792;DHT22;1911;53.768;11.474;2024-01-27T09:28:52;5.70;99.90
3792;DHT22;1911;53.768;11.474;2024-01-27T09:31:22;5.70;99.90
3792;DHT22;1911;53.768;11.474;2024-01-27T09:33:52;5.70;99.90
3792;DHT22;1911;53.768;11.474;2024-01-27T09:36:19;5.70;99.90
3792;DHT22;1911;53.768;11.474;2024-01-27T09:38:45;5.70;99.90
3792;DHT22;1911;53.768;11.474;2024-01-27T09:41:13;5.70;99.90
3792;DHT22;1911;53.768;11.474;2024-01-27T09:43:44;5.70;99.90
3792;DHT22;1911;53.768;11.474;2024-01-27T09:46:11;5.70;99.90
3792;DHT22;1911;53.768;11.474;2024-01-27T09:48:37;5.70;99.90
3792;DHT22;1911;53.768;11.474;2024-01-27T09:51:04;5.70;99.90
3792;DHT22;1911;53.768;11.474;2024-01-27T09:53:30;5.70;99.90
3792;DHT22;1911;53.768;11.474;2024-01-27T09:55:58;5.70;99.90
3792;DHT22;1911;53.768;11.474;2024-01-27T09:58:25;5.80;99.90
3792;DHT22;1911;53.768;11.474;2024-01-27T10:00:57;5.70;99.90
3792;DHT22;1911;53.768;11.474;2024-01-27T10:03:28;5.70;99.90
3792;DHT22;1911;53.768;11.474;2024-01-27T10:05:57;5.60;99.90
3792;DHT22;1911;53.768;11.474;2024-01-27T10:08:23;5.70;99.90
3792;DHT22;1911;53.768;11.474;2024-01-27T10:10:55;5.60;99.90
3792;DHT22;1911;53.768;11.474;2024-01-27T10:13:22;5.50;99.90
3792;DHT22;1911;53.768;11.474;2024-01-27T10:16:04;5.40;99.90
3792;DHT22;1911;53.768;11.474;2024-01-27T10:18:31;5.50;99.90
3792;DHT22;1911;53.768;11.474;2024-01-27T10:20:57;5.50;99.90
3792;DHT22;1911;53.768;11.474;2024-01-27T10:23:23;5.40;99.90
3792;DHT22;1911;53.768;11.474;2024-01-27T10:25:49;5.40;99.90
3792;DHT22;1911;53.768;11.474;2024-01-27T10:28:15;5.40;99.90
3792;DHT22;1911;53.768;11.474;2024-01-27T10:30:41;5.50;99.90
3792;DHT22;1911;53.768;11.474;2024-01-27T10:33:11;5.50;99.90
3792;DHT22;1911;53.768;11.474;2024-01-27T10:35:40;5.50;99.90
3792;DHT22;1911;53.768;11.474;2024-01-27T10:38:06;5.50;99.90
3792;DHT22;1911;53.768;11.474;2024-01-27T10:40:31;5.70;99.90
3792;DHT22;1911;53.768;11.474;2024-01-27T10:43:03;5.70;99.90
3792;DHT22;1911;53.768;11.474;2024-01-27T10:45:36;5.70;99.90
3792;DHT22;1911;53.768;11.474;2024-01-27T10:48:03;5.50;99.90
3792;DHT22;1911;53.768;11.474;2024-01-27T10:50:29;5.50;99.90
3792;DHT22;1911;53.768;11.474;2024-01-27T10:52:57;5.50;99.90
3792;DHT22;1911;53.768;11.474;2024-01-27T10:55:24;5.50;99.90
3792;DHT22;1911;53.768;11.474;2024-01-27T10:57:52;5.40;99.90
3792;DHT22;1911;53.768;11.474;2024-01-27T11:00:19;5.50;99.90
3792;DHT22;1911;53.768;11.474;2024-01-27T11:02:45;5.60;99.90
3792;DHT22;1911;53.768;11.474;2024-01-27T11:05:13;5.60;99.90
3792;DHT22;1911;53.768;11.474;2024-01-27T11:07:39;5.70;99.90
3792;DHT22;1911;53.768;11.474;2024-01-27T11:10:07;5.70;99.90
3792;DHT22;1911;53.768;11.474;2024-01-27T11:12:33;5.80;99.90
3792;DHT22;1911;53.768;11.474;2024-01-27T11:14:59;5.90;99.90
3792;DHT22;1911;53.768;11.474;2024-01-27T11:17:25;6.00;99.90
3792;DHT22;1911;53.768;11.474;2024-01-27T11:19:51;6.10;99.90
3792;DHT22;1911;53.768;11.474;2024-01-27T11:22:28;6.10;99.90
3792;DHT22;1911;53.768;11.474;2024-01-27T11:27:41;6.10;99.90
3792;DHT22;1911;53.768;11.474;2024-01-27T11:30:27;6.00;99.90
3792;DHT22;1911;53.768;11.474;2024-01-27T11:32:56;5.90;99.90
3792;DHT22;1911;53.768;11.474;2024-01-27T11:35:23;6.10;99.90
3792;DHT22;1911;53.768;11.474;2024-01-27T11:37:49;6.20;99.90
3792;DHT22;1911;53.768;11.474;2024-01-27T11:40:15;6.40;99.90
3792;DHT22;1911;53.768;11.474;2024-01-27T11:42:41;6.40;99.90
3792;DHT22;1911;53.768;11.474;2024-01-27T11:45:08;6.40;99.90
3792;DHT22;1911;53.768;11.474;2024-01-27T11:47:34;6.50;99.90
3792;DHT22;1911;53.768;11.474;2024-01-27T11:50:00;6.70;99.90
3792;DHT22;1911;53.768;11.474;2024-01-27T11:52:28;6.70;99.90
3792;DHT22;1911;53.768;11.474;2024-01-27T11:55:00;6.70;99.90
3792;DHT22;1911;53.768;11.474;2024-01-27T11:57:26;6.60;99.90
3792;DHT22;1911;53.768;11.474;2024-01-27T11:59:53;6.60;99.90
3792;DHT22;1911;53.768;11.474;2024-01-27T12:02:19;6.60;99.90
3792;DHT22;1911;53.768;11.474;2024-01-27T12:04:45;6.70;99.90
3792;DHT22;1911;53.768;11.474;2024-01-27T12:07:10;6.80;99.90
3792;DHT22;1911;53.768;11.474;2024-01-27T12:09:36;6.80;99.90
3792;DHT22;1911;53.768;11.474;2024-01-27T12:12:05;6.80;99.90
3792;DHT22;1911;53.768;11.474;2024-01-27T12:14:44;7.00;99.90
3792;DHT22;1911;53.768;11.474;2024-01-27T12:17:10;7.00;99.90
3792;DHT22;1911;53.768;11.474;2024-01-27T12:19:37;7.00;99.90
3792;DHT22;1911;53.768;11.474;2024-01-27T12:22:03;6.90;99.90
3792;DHT22;1911;53.768;11.474;2024-01-27T12:24:29;6.80;99.90
3792;DHT22;1911;53.768;11.474;2024-01-27T12:26:56;6.80;99.90
3792;DHT22;1911;53.768;11.474;2024-01-27T12:29:25;6.80;99.90
3792;DHT22;1911;53.768;11.474;2024-01-27T12:31:51;6.90;99.90
3792;DHT22;1911;53.768;11.474;2024-01-27T12:34:18;6.80;99.90
3792;DHT22;1911;53.768;11.474;2024-01-27T12:36:44;6.80;99.90
3792;DHT22;1911;53.768;11.474;2024-01-27T12:39:10;6.90;99.90
3792;DHT22;1911;53.768;11.474;2024-01-27T12:41:36;7.00;99.90
3792;DHT22;1911;53.768;11.474;2024-01-27T12:44:02;7.00;99.90
3792;DHT22;1911;53.768;11.474;2024-01-27T12:46:28;7.00;99.90
3792;DHT22;1911;53.768;11.474;2024-01-27T12:48:54;6.90;99.90
3792;DHT22;1911;53.768;11.474;2024-01-27T12:51:20;6.90;99.90
3792;DHT22;1911;53.768;11.474;2024-01-27T12:53:46;6.90;99.90
3792;DHT22;1911;53.768;11.474;2024-01-27T12:56:13;6.90;99.90
3792;DHT22;1911;53.768;11.474;2024-01-27T12:58:40;6.90;99.90
3792;DHT22;1911;53.768;11.474;2024-01-27T13:01:07;7.00;99.90
3792;DHT22;1911;53.768;11.474;2024-01-27T13:03:33;6.90;99.90
3792;DHT22;1911;53.768;11.474;2024-01-27T13:06:00;7.00;99.90
3792;DHT22;1911;53.768;11.474;2024-01-27T13:08:26;7.00;99.90
3792;DHT22;1911;53.768;11.474;2024-01-27T13:10:52;7.00;99.90
3792;DHT22;1911;53.768;11.474;2024-01-27T13:13:18;7.00;99.90
3792;DHT22;1911;53.768;11.474;2024-01-27T13:15:44;7.10;99.90
3792;DHT22;1911;53.768;11.474;2024-01-27T13:18:10;7.20;99.90
3792;DHT22;1911;53.768;11.474;2024-01-27T13:20:36;7.10;99.90
3792;DHT22;1911;53.768;11.474;2024-01-27T13:23:02;7.10;99.90
3792;DHT22;1911;53.768;11.474;2024-01-27T13:25:27;7.20;99.90
3792;DHT22;1911;53.768;11.474;2024-01-27T13:27:53;7.30;99.90
3792;DHT22;1911;53.768;11.474;2024-01-27T13:30:19;7.30;99.90
3792;DHT22;1911;53.768;11.474;2024-01-27T13:32:45;7.30;99.90
3792;DHT22;1911;53.768;11.474;2024-01-27T13:35:10;7.20;99.90
3792;DHT22;1911;53.768;11.474;2024-01-27T13:37:36;7.10;99.90
3792;DHT22;1911;53.768;11.474;2024-01-27T13:40:05;7.10;99.90
3792;DHT22;1911;53.768;11.474;2024-01-27T13:42:33;7.10;99.90
3792;DHT22;1911;53.768;11.474;2024-01-27T13:44:59;7.10;99.90
3792;DHT22;1911;53.768;11.474;2024-01-27T13:47:24;7.00;99.90
3792;DHT22;1911;53.768;11.474;2024-01-27T13:49:50;7.00;99.90
3792;DHT22;1911;53.768;11.474;2024-01-27T13:52:16;7.00;99.90
3792;DHT22;1911;53.768;11.474;2024-01-27T13:54:42;7.00;99.90
3792;DHT22;1911;53.768;11.474;2024-01-27T13:57:09;7.00;99.90
3792;DHT22;1911;53.768;11.474;2024-01-27T13:59:36;7.10;99.90
3792;DHT22;1911;53.768;11.474;2024-01-27T14:02:01;7.10;99.90
3792;DHT22;1911;53.768;11.474;2024-01-27T14:04:27;7.10;99.90
3792;DHT22;1911;53.768;11.474;2024-01-27T14:06:53;7.20;99.90
3792;DHT22;1911;53.768;11.474;2024-01-27T14:09:23;7.20;99.90
3792;DHT22;1911;53.768;11.474;2024-01-27T14:11:48;7.10;99.90
3792;DHT22;1911;53.768;11.474;2024-01-27T14:14:14;7.10;99.90
3792;DHT22;1911;53.768;11.474;2024-01-27T14:16:43;7.00;99.90
3792;DHT22;1911;53.768;11.474;2024-01-27T14:19:08;7.00;99.90
3792;DHT22;1911;53.768;11.474;2024-01-27T14:21:34;7.00;99.90
3792;DHT22;1911;53.768;11.474;2024-01-27T14:24:00;7.00;99.90
3792;DHT22;1911;53.768;11.474;2024-01-27T14:26:28;7.00;99.90
3792;DHT22;1911;53.768;11.474;2024-01-27T14:28:54;7.00;99.90
3792;DHT22;1911;53.768;11.474;2024-01-27T14:31:21;6.90;99.90
3792;DHT22;1911;53.768;11.474;2024-01-27T14:33:46;6.90;99.90
3792;DHT22;1911;53.768;11.474;2024-01-27T14:36:13;6.90;99.90
3792;DHT22;1911;53.768;11.474;2024-01-27T14:38:39;6.90;99.90
3792;DHT22;1911;53.768;11.474;2024-01-27T14:41:09;6.80;99.90
3792;DHT22;1911;53.768;11.474;2024-01-27T14:43:37;6.80;99.90
3792;DHT22;1911;53.768;11.474;2024-01-27T14:46:04;6.80;99.90
3792;DHT22;1911;53.768;11.474;2024-01-27T14:48:29;6.80;99.90
3792;DHT22;1911;53.768;11.474;2024-01-27T14:50:56;6.70;99.90
3792;DHT22;1911;53.768;11.474;2024-01-27T14:53:28;6.70;99.90
3792;DHT22;1911;53.768;11.474;2024-01-27T14:55:54;6.70;99.90
3792;DHT22;1911;53.768;11.474;2024-01-27T14:58:21;6.70;99.90
3792;DHT22;1911;53.768;11.474;2024-01-27T15:00:47;6.60;99.90
3792;DHT22;1911;53.768;11.474;2024-01-27T15:03:23;6.50;99.90
3792;DHT22;1911;53.768;11.474;2024-01-27T15:05:49;6.50;99.90
3792;DHT22;1911;53.768;11.474;2024-01-27T15:08:19;6.40;99.90
3792;DHT22;1911;53.768;11.474;2024-01-27T15:10:45;6.40;99.90
3792;DHT22;1911;53.768;11.474;2024-01-27T15:13:14;6.40;99.90
3792;DHT22;1911;53.768;11.474;2024-01-27T15:15:42;6.40;99.90
3792;DHT22;1911;53.768;11.474;2024-01-27T15:18:08;6.30;99.90
3792;DHT22;1911;53.768;11.474;2024-01-27T15:20:35;6.30;99.90
3792;DHT22;1911;53.768;11.474;2024-01-27T15:23:01;6.30;99.90
3792;DHT22;1911;53.768;11.474;2024-01-27T15:25:27;6.20;99.90
3792;DHT22;1911;53.768;11.474;2024-01-27T15:27:53;6.20;99.90
3792;DHT22;1911;53.768;11.474;2024-01-27T15:30:19;6.10;99.90
3792;DHT22;1911;53.768;11.474;2024-01-27T15:32:48;6.10;99.90
3792;DHT22;1911;53.768;11.474;2024-01-27T15:35:13;6.10;99.90
3792;DHT22;1911;53.768;11.474;2024-01-27T15:37:39;6.00;99.90
3792;DHT22;1911;53.768;11.474;2024-01-27T15:40:08;6.00;99.90
3792;DHT22;1911;53.768;11.474;2024-01-27T15:42:38;6.00;99.90
3792;DHT22;1911;53.768;11.474;2024-01-27T15:45:04;5.90;99.90
3792;DHT22;1911;53.768;11.474;2024-01-27T15:47:30;5.90;99.90
3792;DHT22;1911;53.768;11.474;2024-01-27T15:49:56;5.80;99.90
3792;DHT22;1911;53.768;11.474;2024-01-27T15:52:31;5.80;99.90
3792;DHT22;1911;53.768;11.474;2024-01-27T15:54:57;5.70;99.90
3792;DHT22;1911;53.768;11.474;2024-01-27T15:57:23;5.70;99.90
3792;DHT22;1911;53.768;11.474;2024-01-27T15:59:49;5.70;99.90
3792;DHT22;1911;53.768;11.474;2024-01-27T16:02:15;5.70;99.90
3792;DHT22;1911;53.768;11.474;2024-01-27T16:04:42;5.60;99.90
3792;DHT22;1911;53.768;11.474;2024-01-27T16:07:08;5.60;99.90
3792;DHT22;1911;53.768;11.474;2024-01-27T16:09:33;5.50;99.90
3792;DHT22;1911;53.768;11.474;2024-01-27T16:12:06;5.50;99.90
3792;DHT22;1911;53.768;11.474;2024-01-27T16:14:32;5.40;99.90
3792;DHT22;1911;53.768;11.474;2024-01-27T16:16:59;5.40;99.90